createdAt,value
2022-12-26T00:01:10.883Z,22.65
2022-12-26T00:03:39.280Z,23.40
2022-12-26T00:06:14.504Z,24.48
2022-12-26T00:08:42.639Z,22.90
2022-12-26T00:11:10.767Z,22.17
2022-12-26T00:13:41.567Z,22.02
2022-12-26T00:16:11.102Z,22.45
2022-12-26T00:18:39.350Z,21.77
2022-12-26T00:21:07.663Z,22.23
2022-12-26T00:23:37.412Z,20.17
2022-12-26T00:26:05.680Z,21.00
2022-12-26T00:28:33.817Z,21.13
2022-12-26T00:31:05.071Z,20.98
2022-12-26T00:33:33.226Z,20.73
2022-12-26T00:36:02.756Z,21.33
2022-12-26T00:38:31.099Z,21.17
2022-12-26T00:41:00.572Z,20.17
2022-12-26T00:43:28.731Z,19.98
2022-12-26T00:45:56.831Z,19.95
2022-12-26T00:48:25.412Z,19.95
2022-12-26T00:50:53.561Z,20.38
2022-12-26T00:53:21.852Z,19.67
2022-12-26T00:55:49.923Z,19.55
2022-12-26T00:58:19.530Z,18.90
2022-12-26T01:00:47.661Z,19.98
2022-12-26T01:03:16.047Z,19.55
2022-12-26T01:05:44.252Z,20.17
2022-12-26T01:08:19.501Z,19.15
2022-12-26T01:10:50.385Z,17.65
2022-12-26T01:13:19.892Z,18.38
2022-12-26T01:15:51.712Z,18.50
2022-12-26T01:18:20.032Z,18.25
2022-12-26T01:20:48.166Z,18.13
2022-12-26T01:23:16.236Z,18.42
2022-12-26T01:26:16.909Z,18.17
2022-12-26T01:28:33.846Z,17.92
2022-12-26T01:31:04.828Z,16.60
2022-12-26T01:33:33.051Z,17.67
2022-12-26T01:36:01.222Z,16.85
2022-12-26T01:38:29.451Z,17.40
2022-12-26T01:41:11.398Z,16.83
2022-12-26T01:43:57.611Z,16.65
2022-12-26T01:46:28.635Z,17.00
2022-12-26T01:48:57.447Z,16.95
2022-12-26T01:51:25.677Z,16.27
2022-12-26T01:53:54.997Z,16.13
2022-12-26T01:56:43.601Z,15.70
2022-12-26T01:59:14.660Z,15.15
2022-12-26T02:01:43.005Z,14.98
2022-12-26T02:04:30.852Z,16.15
2022-12-26T02:06:59.067Z,15.07
2022-12-26T02:09:27.176Z,15.70
2022-12-26T02:12:36.626Z,15.38
2022-12-26T02:14:47.009Z,15.20
2022-12-26T02:17:15.152Z,15.30
2022-12-26T02:19:47.106Z,14.45
2022-12-26T02:22:31.809Z,14.10
2022-12-26T02:25:10.803Z,15.45
2022-12-26T02:28:03.289Z,14.52
2022-12-26T02:30:38.091Z,14.68
2022-12-26T02:33:18.598Z,13.90
2022-12-26T02:36:01.052Z,14.30
2022-12-26T02:38:35.000Z,14.10
2022-12-26T02:41:08.752Z,14.00
2022-12-26T02:43:39.748Z,13.98
2022-12-26T02:46:30.825Z,14.05
2022-12-26T02:48:59.961Z,13.40
2022-12-26T02:51:56.861Z,13.73
2022-12-26T02:54:48.751Z,14.05
2022-12-26T02:57:37.081Z,13.70
2022-12-26T03:00:24.675Z,13.88
2022-12-26T03:03:12.248Z,14.00
2022-12-26T03:05:59.568Z,13.30
2022-12-26T03:08:47.921Z,13.25
2022-12-26T03:11:33.426Z,13.13
2022-12-26T03:14:06.694Z,12.85
2022-12-26T03:16:52.045Z,13.15
2022-12-26T03:19:21.599Z,13.25
2022-12-26T03:21:49.662Z,13.00
2022-12-26T03:24:17.784Z,13.52
2022-12-26T03:26:48.471Z,12.93
2022-12-26T03:29:34.731Z,13.10
2022-12-26T03:32:04.204Z,12.63
2022-12-26T03:34:33.817Z,12.20
2022-12-26T03:37:47.154Z,12.18
2022-12-26T03:40:40.262Z,12.40
2022-12-26T03:43:29.576Z,12.57
2022-12-26T03:46:19.528Z,11.57
2022-12-26T03:49:08.420Z,12.27
2022-12-26T03:51:58.203Z,11.80
2022-12-26T03:54:51.295Z,11.57
2022-12-26T03:57:37.466Z,11.70
2022-12-26T04:00:24.348Z,12.18
2022-12-26T04:03:10.249Z,12.02
2022-12-26T04:05:56.998Z,12.35
2022-12-26T04:08:46.292Z,11.02
2022-12-26T04:11:33.036Z,11.73
2022-12-26T04:14:20.331Z,11.25
2022-12-26T04:17:08.018Z,11.02
2022-12-26T04:19:48.546Z,10.80
2022-12-26T04:22:36.798Z,10.82
2022-12-26T04:25:50.275Z,10.95
2022-12-26T04:28:31.572Z,10.80
2022-12-26T04:31:19.456Z,11.20
2022-12-26T04:34:07.840Z,10.85
2022-12-26T04:36:56.078Z,10.60
2022-12-26T04:39:42.584Z,10.38
2022-12-26T04:42:29.242Z,10.30
2022-12-26T04:44:57.470Z,10.73
2022-12-26T04:47:25.517Z,10.85
2022-12-26T04:50:11.261Z,10.20
2022-12-26T04:52:59.784Z,10.48
2022-12-26T04:55:29.615Z,10.20
2022-12-26T04:57:59.154Z,9.80
2022-12-26T05:00:29.282Z,9.63
2022-12-26T05:03:29.234Z,10.52
2022-12-26T05:06:14.900Z,10.45
2022-12-26T05:09:00.986Z,10.60
2022-12-26T05:11:29.230Z,10.13
2022-12-26T05:13:58.972Z,9.63
2022-12-26T05:16:44.690Z,9.88
2022-12-26T05:19:30.209Z,8.90
2022-12-26T05:22:16.232Z,9.23
2022-12-26T05:25:02.046Z,9.93
2022-12-26T05:27:49.277Z,9.43
2022-12-26T05:30:18.938Z,9.20
2022-12-26T05:33:04.398Z,9.40
2022-12-26T05:35:32.557Z,9.13
2022-12-26T05:38:00.599Z,9.63
2022-12-26T05:40:28.770Z,8.70
2022-12-26T05:42:56.900Z,9.00
2022-12-26T05:45:26.397Z,9.15
2022-12-26T05:47:59.335Z,9.30
2022-12-26T05:50:27.548Z,9.05
2022-12-26T05:52:57.344Z,9.05
2022-12-26T05:55:25.530Z,8.70
2022-12-26T05:57:53.556Z,8.82
2022-12-26T06:00:21.757Z,8.40
2022-12-26T06:02:51.424Z,9.13
2022-12-26T06:05:19.771Z,8.90
2022-12-26T06:07:47.806Z,9.15
2022-12-26T06:10:16.069Z,8.10
2022-12-26T06:12:44.159Z,8.77
2022-12-26T06:15:12.908Z,8.45
2022-12-26T06:17:40.999Z,8.27
2022-12-26T06:20:11.361Z,9.02
2022-12-26T06:22:39.580Z,8.25
2022-12-26T06:25:08.700Z,8.32
2022-12-26T06:27:36.764Z,8.43
2022-12-26T06:30:05.551Z,7.78
2022-12-26T06:32:33.591Z,8.15
2022-12-26T06:35:01.690Z,8.05
2022-12-26T06:37:31.524Z,7.57
2022-12-26T06:39:59.621Z,8.00
2022-12-26T06:42:28.574Z,8.75
2022-12-26T06:44:56.696Z,10.57
2022-12-26T06:47:24.734Z,10.35
2022-12-26T06:49:52.869Z,10.32
2022-12-26T06:52:21.064Z,10.98
2022-12-26T06:54:50.542Z,12.15
2022-12-26T06:57:18.683Z,13.30
2022-12-26T06:59:46.744Z,14.35
2022-12-26T07:02:14.979Z,15.57
2022-12-26T07:04:43.259Z,16.80
2022-12-26T07:07:11.423Z,20.20
2022-12-26T07:09:39.522Z,30.55
2022-12-26T07:12:09.104Z,27.52
2022-12-26T07:14:37.886Z,34.58
2022-12-26T07:17:06.008Z,38.92
2022-12-26T07:19:34.127Z,39.25
2022-12-26T07:22:02.231Z,36.17
2022-12-26T07:24:31.039Z,37.38
2022-12-26T07:26:59.127Z,37.67
2022-12-26T07:29:28.642Z,31.33
2022-12-26T07:31:58.206Z,34.90
2022-12-26T07:34:31.337Z,35.17
2022-12-26T07:37:01.286Z,35.25
2022-12-26T07:39:29.400Z,40.90
2022-12-26T07:42:00.406Z,39.47
2022-12-26T07:44:30.746Z,42.33
2022-12-26T07:46:58.896Z,43.63
2022-12-26T07:49:27.166Z,45.22
2022-12-26T07:51:55.336Z,46.22
2022-12-26T07:54:23.661Z,37.53
2022-12-26T07:56:51.815Z,42.00
2022-12-26T07:59:19.872Z,38.70
2022-12-26T08:01:49.476Z,44.92
2022-12-26T08:04:17.761Z,41.17
2022-12-26T08:06:47.225Z,49.70
2022-12-26T08:09:17.077Z,51.03
2022-12-26T08:11:45.546Z,51.95
2022-12-26T08:14:13.857Z,43.30
2022-12-26T08:16:42.059Z,42.97
2022-12-26T08:19:11.600Z,44.88
2022-12-26T08:21:39.788Z,48.67
2022-12-26T08:24:08.028Z,58.50
2022-12-26T08:26:36.122Z,68.47
2022-12-26T08:29:04.197Z,57.45
2022-12-26T08:31:32.341Z,59.67
2022-12-26T08:34:00.458Z,63.40
2022-12-26T08:36:31.981Z,62.30
2022-12-26T08:39:00.074Z,64.07
2022-12-26T08:41:28.193Z,64.80
2022-12-26T08:46:44.487Z,62.30
2022-12-26T08:49:12.597Z,62.03
2022-12-26T08:51:42.089Z,63.03
2022-12-26T08:54:10.174Z,61.17
2022-12-26T08:56:38.332Z,59.75
2022-12-26T08:59:07.987Z,59.58
2022-12-26T09:01:36.275Z,55.85
2022-12-26T09:04:06.719Z,53.08
2022-12-26T09:06:35.273Z,51.67
2022-12-26T09:09:04.801Z,51.90
2022-12-26T09:11:32.919Z,49.50
2022-12-26T09:14:02.188Z,48.65
2022-12-26T09:16:37.485Z,46.92
2022-12-26T09:19:06.808Z,45.47
2022-12-26T09:21:35.174Z,45.78
2022-12-26T09:24:07.013Z,45.08
2022-12-26T09:26:35.214Z,44.95
2022-12-26T09:29:03.362Z,42.25
2022-12-26T09:31:32.344Z,41.97
2022-12-26T09:34:00.613Z,39.47
2022-12-26T09:36:30.561Z,39.05
2022-12-26T09:38:59.025Z,40.30
2022-12-26T09:41:37.975Z,42.25
2022-12-26T09:44:08.022Z,41.83
2022-12-26T09:46:37.508Z,46.72
2022-12-26T09:49:09.818Z,49.28
2022-12-26T09:51:38.873Z,55.08
2022-12-26T09:54:07.464Z,60.70
2022-12-26T09:57:02.189Z,65.05
2022-12-26T09:59:26.586Z,65.25
2022-12-26T10:01:55.499Z,72.32
2022-12-26T10:04:29.641Z,73.07
2022-12-26T10:07:04.914Z,73.90
2022-12-26T10:09:56.419Z,70.65
2022-12-26T10:12:34.478Z,67.68
2022-12-26T10:15:07.815Z,59.92
2022-12-26T10:17:38.143Z,61.25
2022-12-26T10:20:19.111Z,62.13
2022-12-26T10:23:06.084Z,61.17
2022-12-26T10:25:42.268Z,61.40
2022-12-26T10:28:17.130Z,61.05
2022-12-26T10:30:45.287Z,57.83
2022-12-26T10:33:15.274Z,61.45
2022-12-26T10:35:44.229Z,61.05
2022-12-26T10:38:14.277Z,59.47
2022-12-26T10:40:43.899Z,64.35
2022-12-26T10:43:22.725Z,61.05
2022-12-26T10:45:53.339Z,55.03
2022-12-26T10:48:21.495Z,54.92
2022-12-26T10:50:50.084Z,52.67
2022-12-26T10:53:18.172Z,52.92
2022-12-26T10:55:46.231Z,53.33
2022-12-26T10:58:19.063Z,52.10
2022-12-26T11:00:47.207Z,54.90
2022-12-26T11:03:16.158Z,54.22
2022-12-26T11:08:40.849Z,51.60
2022-12-26T11:11:13.948Z,51.83
2022-12-26T11:13:47.519Z,53.03
2022-12-26T11:16:15.821Z,51.35
2022-12-26T11:18:48.556Z,52.50
2022-12-26T11:21:23.242Z,51.63
2022-12-26T11:23:52.486Z,51.53
2022-12-26T11:26:23.441Z,50.03
2022-12-26T11:29:06.884Z,49.47
2022-12-26T11:31:35.104Z,50.10
2022-12-26T11:34:03.403Z,49.63
2022-12-26T11:36:32.776Z,49.90
2022-12-26T11:39:02.026Z,56.33
2022-12-26T11:41:39.759Z,55.55
2022-12-26T11:44:20.237Z,55.20
2022-12-26T11:46:51.134Z,54.65
2022-12-26T11:49:21.984Z,54.35
2022-12-26T11:51:55.650Z,53.70
2022-12-26T11:54:32.619Z,55.13
2022-12-26T11:57:20.784Z,52.72
2022-12-26T11:59:50.864Z,54.80
2022-12-26T12:02:29.946Z,52.72
2022-12-26T12:05:00.958Z,52.80
2022-12-26T12:08:07.286Z,55.53
2022-12-26T12:10:47.892Z,56.08
2022-12-26T12:13:25.017Z,62.30
2022-12-26T12:15:57.862Z,62.60
2022-12-26T12:18:33.261Z,64.47
2022-12-26T12:21:06.145Z,70.93
2022-12-26T12:23:44.571Z,72.57
2022-12-26T12:26:15.686Z,70.63
2022-12-26T12:29:11.679Z,68.35
2022-12-26T12:31:48.191Z,71.38
2022-12-26T12:34:22.194Z,73.40
2022-12-26T12:36:55.863Z,74.20
2022-12-26T12:39:30.964Z,76.50
2022-12-26T12:42:15.347Z,74.50
2022-12-26T12:44:59.909Z,76.70
2022-12-26T12:47:35.598Z,73.38
2022-12-26T12:50:07.423Z,74.47
2022-12-26T12:52:42.596Z,73.60
2022-12-26T12:55:50.290Z,73.90
2022-12-26T12:58:23.332Z,74.50
2022-12-26T13:00:53.483Z,75.50
2022-12-26T13:03:27.418Z,70.95
2022-12-26T13:05:58.396Z,72.72
2022-12-26T13:08:28.318Z,72.20
2022-12-26T13:10:59.166Z,71.75
2022-12-26T13:13:28.874Z,70.75
2022-12-26T13:15:58.829Z,76.57
2022-12-26T13:18:29.622Z,75.93
2022-12-26T13:21:00.326Z,77.47
2022-12-26T13:23:48.536Z,77.80
2022-12-26T13:26:19.089Z,79.57
2022-12-26T13:28:53.077Z,80.18
2022-12-26T13:31:22.154Z,82.03
2022-12-26T13:33:51.747Z,79.65
2022-12-26T13:36:37.422Z,79.30
2022-12-26T13:39:26.736Z,82.70
2022-12-26T13:42:13.531Z,85.72
2022-12-26T13:44:41.720Z,82.30
2022-12-26T13:47:34.539Z,81.20
2022-12-26T13:50:35.668Z,83.13
2022-12-26T13:53:05.330Z,82.30
2022-12-26T13:55:44.126Z,82.35
2022-12-26T13:58:24.792Z,85.30
2022-12-26T14:00:52.963Z,84.53
2022-12-26T14:03:55.104Z,85.32
2022-12-26T14:06:50.939Z,81.53
2022-12-26T14:09:43.035Z,77.28
2022-12-26T14:12:46.341Z,81.75
2022-12-26T14:15:23.605Z,78.72
2022-12-26T14:17:58.876Z,79.90
2022-12-26T14:20:39.432Z,85.40
2022-12-26T14:23:25.485Z,82.38
2022-12-26T14:25:59.465Z,86.30
2022-12-26T14:28:29.358Z,86.28
2022-12-26T14:31:06.206Z,87.70
2022-12-26T14:33:36.794Z,88.72
2022-12-26T14:36:18.341Z,88.60
2022-12-26T14:38:48.983Z,93.00
2022-12-26T14:41:33.005Z,88.07
2022-12-26T14:44:11.371Z,94.85
2022-12-26T14:47:02.992Z,90.72
2022-12-26T14:49:39.505Z,93.78
2022-12-26T14:52:40.878Z,94.72
2022-12-26T14:55:40.251Z,88.53
2022-12-26T14:58:29.338Z,90.03
2022-12-26T15:00:58.223Z,90.65
2022-12-26T15:03:47.811Z,87.65
2022-12-26T15:06:43.828Z,87.97
2022-12-26T15:09:50.758Z,81.10
2022-12-26T15:12:58.365Z,81.18
2022-12-26T15:15:32.768Z,77.10
2022-12-26T15:18:23.841Z,75.97
2022-12-26T15:21:09.136Z,79.13
2022-12-26T15:24:11.684Z,79.53
2022-12-26T15:27:07.758Z,84.68
2022-12-26T15:30:00.872Z,83.70
2022-12-26T15:32:33.329Z,83.97
2022-12-26T15:35:07.446Z,82.82
2022-12-26T15:37:56.454Z,84.55
2022-12-26T15:40:25.429Z,80.43
2022-12-26T15:43:00.951Z,80.45
2022-12-26T15:45:41.166Z,77.60
2022-12-26T15:48:18.645Z,76.82
2022-12-26T15:50:53.217Z,74.75
2022-12-26T15:53:26.721Z,74.22
2022-12-26T15:56:08.872Z,73.28
2022-12-26T15:58:50.356Z,75.10
2022-12-26T16:01:39.716Z,72.60
2022-12-26T16:04:14.316Z,69.68
2022-12-26T16:07:00.221Z,69.50
2022-12-26T16:09:38.701Z,69.07
2022-12-26T16:12:21.408Z,67.90
2022-12-26T16:14:50.002Z,68.05
2022-12-26T16:17:22.918Z,68.00
2022-12-26T16:19:53.308Z,66.70
2022-12-26T16:22:44.149Z,65.82
2022-12-26T16:25:12.889Z,63.53
2022-12-26T16:27:40.960Z,60.13
2022-12-26T16:30:14.202Z,63.33
2022-12-26T16:32:43.017Z,64.25
2022-12-26T16:35:19.569Z,64.35
2022-12-26T16:37:47.730Z,63.55
2022-12-26T16:40:19.438Z,62.15
2022-12-26T16:43:00.340Z,62.95
2022-12-26T16:45:29.075Z,64.30
2022-12-26T16:47:57.315Z,63.97
2022-12-26T16:50:28.595Z,63.95
2022-12-26T16:53:15.080Z,62.63
2022-12-26T16:55:46.678Z,65.32
2022-12-26T16:58:17.322Z,62.05
2022-12-26T17:00:50.338Z,60.72
2022-12-26T17:03:27.646Z,64.18
2022-12-26T17:05:57.345Z,63.28
2022-12-26T17:08:26.137Z,71.85
2022-12-26T17:10:54.208Z,66.03
2022-12-26T17:13:23.540Z,68.57
2022-12-26T17:15:53.314Z,66.38
2022-12-26T17:18:32.386Z,66.68
2022-12-26T17:21:31.386Z,68.18
2022-12-26T17:24:13.207Z,70.10
2022-12-26T17:26:42.051Z,88.95
2022-12-26T17:29:38.442Z,83.90
2022-12-26T17:32:09.800Z,87.13
2022-12-26T17:34:38.868Z,82.10
2022-12-26T17:37:18.992Z,78.65
2022-12-26T17:39:52.695Z,82.40
2022-12-26T17:42:20.831Z,84.45
2022-12-26T17:44:48.903Z,85.22
2022-12-26T17:47:22.621Z,82.30
2022-12-26T17:49:51.393Z,83.43
2022-12-26T17:52:21.665Z,86.13
2022-12-26T17:54:50.306Z,84.30
2022-12-26T17:57:20.361Z,83.25
2022-12-26T17:59:48.631Z,79.93
2022-12-26T18:02:16.835Z,82.78
2022-12-26T18:04:45.078Z,80.97
2022-12-26T18:07:14.383Z,84.18
2022-12-26T18:09:43.842Z,85.28
2022-12-26T18:12:12.820Z,84.00
2022-12-26T18:14:40.937Z,89.60
2022-12-26T18:17:09.127Z,91.03
2022-12-26T18:19:37.269Z,88.05
2022-12-26T18:22:06.194Z,87.43
2022-12-26T18:24:34.429Z,89.72
2022-12-26T18:27:04.276Z,94.03
2022-12-26T18:29:32.438Z,93.80
2022-12-26T18:32:00.614Z,88.97
2022-12-26T18:34:28.830Z,91.55
2022-12-26T18:36:57.016Z,93.93
2022-12-26T18:39:25.451Z,90.70
2022-12-26T18:41:53.535Z,91.97
2022-12-26T18:44:23.065Z,92.28
2022-12-26T18:46:51.891Z,95.57
2022-12-26T18:49:20.083Z,105.28
2022-12-26T18:51:48.266Z,106.65
2022-12-26T18:54:16.497Z,105.65
2022-12-26T18:56:44.626Z,104.20
2022-12-26T18:59:13.267Z,104.75
2022-12-26T19:01:42.825Z,99.45
2022-12-26T19:04:11.178Z,99.20
2022-12-26T19:06:39.391Z,97.80
2022-12-26T19:09:07.481Z,96.18
2022-12-26T19:11:35.763Z,95.18
2022-12-26T19:14:07.803Z,95.00
2022-12-26T19:16:36.044Z,96.82
2022-12-26T19:19:05.699Z,97.55
2022-12-26T19:21:33.796Z,96.03
2022-12-26T19:24:02.003Z,99.53
2022-12-26T19:26:30.106Z,93.05
2022-12-26T19:28:58.234Z,91.28
2022-12-26T19:31:26.439Z,92.18
2022-12-26T19:33:54.639Z,90.57
2022-12-26T19:36:24.137Z,91.40
2022-12-26T19:38:53.823Z,90.50
2022-12-26T19:41:22.091Z,90.03
2022-12-26T19:43:55.460Z,87.97
2022-12-26T19:46:23.628Z,89.03
2022-12-26T19:48:51.793Z,86.45
2022-12-26T19:51:20.185Z,87.15
2022-12-26T19:53:49.691Z,90.10
2022-12-26T19:56:18.858Z,93.50
2022-12-26T19:58:50.459Z,89.72
2022-12-26T20:01:22.711Z,90.68
2022-12-26T20:03:50.856Z,91.90
2022-12-26T20:06:20.391Z,87.47
2022-12-26T20:08:50.505Z,88.18
2022-12-26T20:11:21.557Z,87.50
2022-12-26T20:13:49.805Z,87.07
2022-12-26T20:17:03.162Z,84.22
2022-12-26T20:19:11.287Z,90.28
2022-12-26T20:21:39.388Z,87.15
2022-12-26T20:24:10.638Z,89.45
2022-12-26T20:26:38.733Z,87.60
2022-12-26T20:29:08.421Z,88.28
2022-12-26T20:31:36.612Z,84.72
2022-12-26T20:34:04.853Z,85.13
2022-12-26T20:36:33.958Z,85.60
2022-12-26T20:39:03.069Z,82.68
2022-12-26T20:41:32.591Z,82.60
2022-12-26T20:44:00.716Z,83.68
2022-12-26T20:46:31.930Z,84.18
2022-12-26T20:49:01.337Z,84.10
2022-12-26T20:51:36.860Z,83.07
2022-12-26T20:54:06.538Z,80.25
2022-12-26T20:56:36.344Z,83.53
2022-12-26T20:59:04.561Z,80.80
2022-12-26T21:01:32.772Z,75.72
2022-12-26T21:04:01.129Z,74.07
2022-12-26T21:06:31.203Z,76.05
2022-12-26T21:08:59.432Z,78.40
2022-12-26T21:11:28.401Z,77.85
2022-12-26T21:13:59.529Z,76.30
2022-12-26T21:16:28.645Z,74.78
2022-12-26T21:18:57.373Z,77.15
2022-12-26T21:21:26.410Z,74.40
2022-12-26T21:23:56.596Z,74.60
2022-12-26T21:26:24.938Z,74.93
2022-12-26T21:28:57.822Z,72.50
2022-12-26T21:31:25.976Z,72.32
2022-12-26T21:33:56.027Z,71.80
2022-12-26T21:36:24.443Z,71.55
2022-12-26T21:38:52.898Z,68.55
2022-12-26T21:41:21.337Z,70.95
2022-12-26T21:43:49.744Z,68.53
2022-12-26T21:46:20.113Z,69.25
2022-12-26T21:48:49.884Z,68.50
2022-12-26T21:51:18.921Z,67.20
2022-12-26T21:53:47.114Z,66.18
2022-12-26T21:56:15.088Z,66.60
2022-12-26T21:59:00.531Z,64.72
2022-12-26T22:01:30.318Z,66.97
2022-12-26T22:04:15.659Z,66.35
2022-12-26T22:06:43.951Z,63.47
2022-12-26T22:09:12.488Z,63.83
2022-12-26T22:11:58.152Z,65.05
2022-12-26T22:14:26.234Z,63.28
2022-12-26T22:16:56.169Z,64.07
2022-12-26T22:19:25.278Z,62.47
2022-12-26T22:21:53.369Z,60.58
2022-12-26T22:24:21.845Z,62.33
2022-12-26T22:26:49.969Z,60.88
2022-12-26T22:29:18.258Z,59.53
2022-12-26T22:31:46.361Z,58.40
2022-12-26T22:34:16.930Z,59.28
2022-12-26T22:36:45.012Z,58.72
2022-12-26T22:39:13.797Z,58.28
2022-12-26T22:41:41.950Z,57.05
2022-12-26T22:44:12.827Z,56.67
2022-12-26T22:46:41.068Z,57.20
2022-12-26T22:49:09.177Z,56.03
2022-12-26T22:51:39.414Z,54.55
2022-12-26T22:54:07.607Z,56.70
2022-12-26T22:56:35.724Z,54.72
2022-12-26T22:59:04.017Z,54.53
2022-12-26T23:01:32.162Z,54.65
2022-12-26T23:04:01.474Z,54.58
2022-12-26T23:06:30.424Z,52.50
2022-12-26T23:09:02.077Z,53.78
2022-12-26T23:11:34.747Z,51.50
2022-12-26T23:14:04.902Z,52.28
2022-12-26T23:16:34.698Z,51.60
2022-12-26T23:19:21.291Z,52.28
2022-12-26T23:21:50.542Z,50.63
2022-12-26T23:24:20.989Z,51.35
2022-12-26T23:26:49.997Z,50.25
2022-12-26T23:29:37.247Z,50.40
2022-12-26T23:32:05.825Z,46.85
2022-12-26T23:34:33.954Z,47.25
2022-12-26T23:37:02.111Z,48.67
2022-12-26T23:39:31.563Z,47.88
2022-12-26T23:41:59.701Z,46.58
2022-12-26T23:44:27.825Z,47.90
2022-12-26T23:46:55.957Z,45.78
2022-12-26T23:49:24.080Z,44.63
2022-12-26T23:51:52.178Z,46.50
2022-12-26T23:54:20.271Z,44.88
2022-12-26T23:56:49.809Z,44.70
2022-12-26T23:59:19.061Z,44.38
